KJAXKJQF

Guest
Details From KJAX - Jacksonville Intl
To KJQF - Concord Rgnl
Flight Number -
Tags Generated
Created
Modified
Stats Distance 298 nm / 551 km
Max Altitude 0 ft / 0 m
Waypoints 3
Social Downloads 0
Likes 0
Share VATSIM

Download

Looking for another format? Having issues loading an existing format? Contact us
Advertisement - Login to hide

Notes

Generated

Route

KJAX WEGTI KJQF

ID Type Via Altitude Latitude Longitude Leg Dist Tot Dist Heading (true) Name
O KJAX APT - 0 ft / 0 m 30.49216˚ -81.70084˚ - 0 nm - -
WEGTI FIX - 0 ft / 0 m 35.33692˚ -80.72058˚ 295 nm 295 nm 9° / 10° -
O KJQF APT - 0 ft / 0 m 35.37777˚ -80.71139˚ 2 nm 297 nm 10° / 10° -

Altitude Profile

Advertisement - Login to hide

Weather


0- 5 10 15 20 25 30 35+ Temperature / ° C

Clouds and Precipitation
Forecast for 2017-12-16 12:00 UTC. Updated 26 minutes ago

Ground ~20,000 ft ~40,000 ft Winds

KJAX

Details ICAO KJAX (JAX)
Name Jacksonville Intl
Region United States
Timezone America/New_York (UTC-5.0)
Stats Elevation 30 ft / 9 m (AMSL)
Location 30.493037° -81.688273°
Runways 2
Magnetic Variation 6.466° W

METAR

KJAX 160856Z 34007KT 10SM BKN110 11/04 A3020 RMK AO2 SLP227 T01060039 53007 $

Decode

TAF

TAF KJAX 160520Z 1606/1706 32007KT P6SM BKN100 OVC250 FM161100 36004KT P6SM BKN100 BKN250 FM161600 04005KT P6SM SCT100 FM170100 00000KT P6SM SCT120 SCT250

Decode

Departure Runways

ID Width Length Bearing (true) Bearing (mag) Surface Threshold Offset Overrun Length
08 151 ft / 46 m 9,989 ft / 3,045 m 70.45° 76.92° Concrete 0 ft / 0 m 400 ft / 122 m
14 151 ft / 46 m 7,703 ft / 2,348 m 130.70° 137.17° Concrete 0 ft / 0 m 200 ft / 61 m
26 151 ft / 46 m 9,989 ft / 3,045 m 250.47° 256.94° Concrete 0 ft / 0 m 400 ft / 122 m
32 151 ft / 46 m 7,703 ft / 2,348 m 310.70° 317.17° Concrete 0 ft / 0 m 200 ft / 61 m

KJQF

Details ICAO KJQF
Name Concord Rgnl
Region United States
Timezone America/New_York (UTC-5.0)
Stats Elevation 690 ft / 210 m (AMSL)
Location 35.387774° -80.709133°
Runways 1
Magnetic Variation 7.872° W

METAR

KJQF 160930Z AUTO 00000KT 10SM CLR M03/M05 A3021 RMK AO2

Decode

TAF

Not found

Destination Runways

ID Width Length Bearing (true) Bearing (mag) Surface Threshold Offset Overrun Length
02 98 ft / 30 m 7,419 ft / 2,261 m 10.42° 18.29° Asphalt 0 ft / 0 m 0 ft / 0 m
20 98 ft / 30 m 7,419 ft / 2,261 m 190.42° 198.29° Asphalt 650 ft / 198 m 0 ft / 0 m

Approach Navaids

Runway Type Ident Frequency Range Bearing (true) Bearing (mag) Slope Elevation
20 Localiser IJQF 111.95 MHz 18 nm / 33 km 190.40° 198.27° - 690 ft / 210 m (AMSL)
20 Glidescope IJQF 111.95 MHz 10 nm / 19 km 190.40° 198.27° 3.00° 690 ft / 210 m (AMSL)
20 DME IJQF 111.95 MHz 18 nm / 33 km - - - 690 ft / 210 m (AMSL)